createdAt,value
2022-11-08T00:01:59.675Z,83.47
2022-11-08T00:04:26.547Z,83.23
2022-11-08T00:07:11.658Z,83.35
2022-11-08T00:09:56.412Z,83.50
2022-11-08T00:12:41.239Z,82.88
2022-11-08T00:15:08.625Z,82.78
2022-11-08T00:17:35.139Z,82.93
2022-11-08T00:20:01.740Z,83.17
2022-11-08T00:22:30.368Z,83.21
2022-11-08T00:24:57.498Z,83.90
2022-11-08T00:27:24.702Z,83.48
2022-11-08T00:29:51.132Z,82.72
2022-11-08T00:32:20.646Z,82.95
2022-11-08T00:34:48.664Z,82.57
2022-11-08T00:37:16.800Z,82.58
2022-11-08T00:39:43.341Z,81.94
2022-11-08T00:42:09.804Z,82.45
2022-11-08T00:44:36.739Z,82.40
2022-11-08T00:47:03.258Z,81.72
2022-11-08T00:49:29.849Z,81.55
2022-11-08T00:51:56.340Z,81.19
2022-11-08T00:54:22.907Z,80.94
2022-11-08T00:56:49.703Z,81.11
2022-11-08T00:59:18.707Z,81.34
2022-11-08T01:01:46.620Z,81.42
2022-11-08T01:04:15.949Z,81.12
2022-11-08T01:06:42.479Z,80.73
2022-11-08T01:09:10.028Z,80.89
2022-11-08T01:11:38.379Z,81.53
2022-11-08T01:14:04.858Z,81.59
2022-11-08T01:16:33.337Z,81.72
2022-11-08T01:19:00.807Z,81.88
2022-11-08T01:21:28.387Z,81.37
2022-11-08T01:23:55.389Z,81.88
2022-11-08T01:26:24.931Z,81.80
2022-11-08T01:28:51.752Z,81.68
2022-11-08T01:31:21.024Z,81.55
2022-11-08T01:33:51.297Z,81.58
2022-11-08T01:36:21.562Z,81.75
2022-11-08T01:38:48.414Z,81.87
2022-11-08T01:41:16.369Z,80.95
2022-11-08T01:43:51.789Z,81.17
2022-11-08T01:46:18.263Z,81.47
2022-11-08T01:48:52.944Z,80.78
2022-11-08T01:51:24.149Z,80.91
2022-11-08T01:53:51.158Z,80.65
2022-11-08T01:56:18.615Z,80.51
2022-11-08T01:58:47.072Z,81.08
2022-11-08T02:01:13.558Z,80.74
2022-11-08T02:03:41.506Z,80.36
2022-11-08T02:06:08.402Z,80.72
2022-11-08T02:08:39.379Z,80.53
2022-11-08T02:11:07.553Z,81.41
2022-11-08T02:13:36.875Z,80.98
2022-11-08T02:16:16.169Z,80.71
2022-11-08T02:18:45.844Z,80.91
2022-11-08T02:21:33.837Z,80.97
2022-11-08T02:24:08.120Z,80.98
2022-11-08T02:26:36.322Z,81.18
2022-11-08T02:29:26.071Z,80.44
2022-11-08T02:31:52.961Z,80.33
2022-11-08T02:34:22.469Z,81.03
2022-11-08T02:36:49.934Z,81.53
2022-11-08T02:39:16.651Z,81.99
2022-11-08T02:41:43.043Z,81.71
2022-11-08T02:44:09.472Z,81.70
2022-11-08T02:46:35.939Z,82.16
2022-11-08T02:49:02.447Z,81.39
2022-11-08T02:51:28.954Z,81.44
2022-11-08T02:53:55.401Z,80.88
2022-11-08T02:56:23.335Z,81.42
2022-11-08T02:58:49.753Z,81.15
2022-11-08T03:01:16.232Z,80.90
2022-11-08T03:03:42.718Z,81.10
2022-11-08T03:06:09.102Z,81.25
2022-11-08T03:08:35.743Z,81.18
2022-11-08T03:11:02.220Z,80.90
2022-11-08T03:13:28.636Z,81.44
2022-11-08T03:15:55.173Z,81.97
2022-11-08T03:18:21.617Z,81.81
2022-11-08T03:20:48.056Z,82.07
2022-11-08T03:23:14.507Z,81.30
2022-11-08T03:25:40.937Z,81.39
2022-11-08T03:28:09.230Z,81.66
2022-11-08T03:30:36.952Z,82.00
2022-11-08T03:33:04.488Z,82.47
2022-11-08T03:35:31.448Z,82.66
2022-11-08T03:37:58.223Z,82.52
2022-11-08T03:40:24.908Z,82.29
2022-11-08T03:42:51.373Z,82.85
2022-11-08T03:45:17.846Z,82.64
2022-11-08T03:47:46.344Z,82.86
2022-11-08T03:50:14.667Z,82.82
2022-11-08T03:52:41.907Z,83.67
2022-11-08T03:55:10.423Z,82.85
2022-11-08T03:57:40.721Z,83.01
2022-11-08T04:00:09.094Z,83.43
2022-11-08T04:02:38.645Z,82.55
2022-11-08T04:05:06.737Z,82.53
2022-11-08T04:07:33.134Z,82.46
2022-11-08T04:09:59.679Z,83.08
2022-11-08T04:12:44.875Z,82.76
2022-11-08T04:15:18.819Z,82.84
2022-11-08T04:18:07.130Z,83.08
2022-11-08T04:20:53.064Z,83.86
2022-11-08T04:23:20.076Z,83.23
2022-11-08T04:26:03.604Z,83.09
2022-11-08T04:28:32.389Z,83.56
2022-11-08T04:31:05.801Z,83.17
2022-11-08T04:33:33.272Z,83.20
2022-11-08T04:36:05.000Z,82.16
2022-11-08T04:38:32.274Z,81.71
2022-11-08T04:41:15.484Z,81.45
2022-11-08T04:43:42.468Z,81.45
2022-11-08T04:46:15.134Z,80.91
2022-11-08T04:48:43.031Z,81.44
2022-11-08T04:51:15.028Z,81.72
2022-11-08T04:53:41.836Z,81.46
2022-11-08T04:56:12.702Z,80.57
2022-11-08T04:58:41.950Z,80.73
2022-11-08T05:01:10.263Z,80.19
2022-11-08T05:03:36.928Z,80.49
2022-11-08T05:06:06.121Z,80.97
2022-11-08T05:08:32.667Z,80.50
2022-11-08T05:11:05.036Z,80.90
2022-11-08T05:13:31.719Z,79.65
2022-11-08T05:16:03.559Z,79.98
2022-11-08T05:18:31.788Z,79.82
2022-11-08T05:21:18.964Z,80.08
2022-11-08T05:23:48.353Z,79.09
2022-11-08T05:26:15.340Z,80.12
2022-11-08T05:28:41.761Z,79.41
2022-11-08T05:31:09.210Z,79.03
2022-11-08T05:33:36.156Z,79.24
2022-11-08T05:36:08.072Z,79.44
2022-11-08T05:38:34.931Z,79.52
2022-11-08T05:41:06.203Z,79.77
2022-11-08T05:43:32.627Z,80.41
2022-11-08T05:45:59.277Z,81.30
2022-11-08T05:48:25.929Z,80.35
2022-11-08T05:50:52.625Z,80.76
2022-11-08T05:53:19.758Z,81.20
2022-11-08T05:55:47.246Z,81.28
2022-11-08T05:58:13.803Z,80.51
2022-11-08T06:00:40.229Z,80.59
2022-11-08T06:03:07.349Z,80.98
2022-11-08T06:05:34.659Z,81.08
2022-11-08T06:08:01.128Z,81.35
2022-11-08T06:10:27.598Z,80.55
2022-11-08T06:12:59.138Z,81.34
2022-11-08T06:15:25.540Z,81.85
2022-11-08T06:17:51.946Z,81.71
2022-11-08T06:20:18.529Z,81.63
2022-11-08T06:22:45.629Z,80.59
2022-11-08T06:25:12.098Z,79.28
2022-11-08T06:27:38.576Z,79.09
2022-11-08T06:30:05.767Z,78.86
2022-11-08T06:32:32.252Z,79.70
2022-11-08T06:34:58.653Z,79.67
2022-11-08T06:37:25.041Z,79.01
2022-11-08T06:39:51.458Z,79.24
2022-11-08T06:42:18.795Z,79.10
2022-11-08T06:44:45.268Z,79.04
2022-11-08T06:47:11.657Z,78.81
2022-11-08T06:49:38.114Z,78.40
2022-11-08T06:52:04.626Z,78.50
2022-11-08T06:54:31.189Z,77.83
2022-11-08T06:57:00.363Z,78.25
2022-11-08T06:59:29.664Z,77.95
2022-11-08T07:01:56.693Z,78.14
2022-11-08T07:04:23.449Z,77.54
2022-11-08T07:06:49.933Z,76.86
2022-11-08T07:09:16.413Z,76.84
2022-11-08T07:11:42.905Z,77.23
2022-11-08T07:14:09.318Z,77.32
2022-11-08T07:16:35.810Z,77.32
2022-11-08T07:19:02.252Z,76.72
2022-11-08T07:21:28.750Z,76.38
2022-11-08T07:23:55.136Z,76.25
2022-11-08T07:26:21.777Z,76.42
2022-11-08T07:28:48.170Z,76.28
2022-11-08T07:31:14.669Z,76.03
2022-11-08T07:33:41.079Z,76.08
2022-11-08T07:36:07.822Z,75.80
2022-11-08T07:38:34.304Z,75.89
2022-11-08T07:41:02.010Z,76.16
2022-11-08T07:43:29.821Z,76.36
2022-11-08T07:46:02.352Z,75.46
2022-11-08T07:48:30.624Z,75.82
2022-11-08T07:53:50.964Z,75.55
2022-11-08T07:56:47.937Z,75.77
2022-11-08T07:59:14.997Z,75.00
2022-11-08T08:01:45.056Z,74.76
2022-11-08T08:04:12.557Z,76.94
2022-11-08T08:13:36.665Z,77.46
2022-11-08T08:16:30.682Z,75.60
2022-11-08T08:18:57.374Z,74.81
2022-11-08T08:21:23.772Z,75.49
2022-11-08T08:24:15.964Z,73.47
2022-11-08T08:26:42.345Z,75.39
2022-11-08T08:29:35.458Z,75.31
2022-11-08T08:32:03.024Z,75.73
2022-11-08T08:40:36.598Z,75.51
2022-11-08T08:46:22.546Z,73.25
2022-11-08T08:48:52.984Z,73.10
2022-11-08T08:51:19.891Z,71.70
2022-11-08T08:54:16.139Z,70.67
2022-11-08T08:56:42.802Z,67.73
2022-11-08T09:02:05.452Z,62.95
2022-11-08T09:04:31.834Z,63.38
2022-11-08T09:07:01.201Z,62.94
2022-11-08T09:09:28.738Z,60.17
2022-11-08T09:11:55.137Z,57.84
2022-11-08T09:14:21.581Z,57.34
2022-11-08T09:16:48.020Z,56.28
2022-11-08T09:19:14.424Z,54.57
2022-11-08T09:21:40.964Z,52.49
2022-11-08T09:24:07.669Z,53.54
2022-11-08T09:26:34.089Z,51.28
2022-11-08T09:29:00.920Z,51.56
2022-11-08T09:31:27.347Z,50.34
2022-11-08T09:33:53.937Z,50.25
2022-11-08T09:36:20.549Z,49.72
2022-11-08T09:38:47.048Z,49.21
2022-11-08T09:41:32.103Z,48.73
2022-11-08T09:44:17.186Z,48.87
2022-11-08T09:46:53.530Z,49.51
2022-11-08T09:49:42.166Z,49.39
2022-11-08T09:52:15.270Z,49.00
2022-11-08T09:54:45.762Z,47.74
2022-11-08T09:57:26.390Z,47.83
2022-11-08T10:00:00.358Z,48.31
2022-11-08T10:02:36.297Z,48.46
2022-11-08T10:05:06.757Z,47.80
2022-11-08T10:07:57.718Z,47.96
2022-11-08T10:10:55.219Z,48.33
2022-11-08T10:13:46.193Z,48.55
2022-11-08T10:16:26.894Z,47.75
2022-11-08T10:19:07.005Z,48.12
2022-11-08T10:22:02.357Z,48.49
2022-11-08T10:24:40.450Z,47.63
2022-11-08T10:27:33.478Z,47.98
2022-11-08T10:30:04.390Z,48.01
2022-11-08T10:32:33.202Z,47.28
2022-11-08T10:35:15.958Z,47.55
2022-11-08T10:37:44.451Z,47.00
2022-11-08T10:40:20.530Z,47.52
2022-11-08T10:42:59.195Z,47.50
2022-11-08T10:45:25.613Z,47.32
2022-11-08T10:47:53.917Z,47.06
2022-11-08T10:50:37.102Z,47.71
2022-11-08T10:53:04.358Z,47.90
2022-11-08T10:55:40.302Z,48.27
2022-11-08T10:58:30.051Z,47.36
2022-11-08T11:01:16.062Z,47.77
2022-11-08T11:03:44.010Z,47.94
2022-11-08T11:06:30.980Z,47.90
2022-11-08T11:09:18.113Z,48.02
2022-11-08T11:11:45.378Z,48.22
2022-11-08T11:14:19.465Z,48.45
2022-11-08T11:17:07.473Z,48.61
2022-11-08T11:19:34.676Z,48.28
2022-11-08T11:22:07.408Z,48.18
2022-11-08T11:24:47.396Z,49.00
2022-11-08T11:27:23.960Z,49.03
2022-11-08T11:30:19.882Z,48.87
2022-11-08T11:32:56.473Z,48.81
2022-11-08T11:35:25.028Z,48.40
2022-11-08T11:37:53.880Z,48.21
2022-11-08T11:40:33.886Z,48.56
2022-11-08T11:43:16.298Z,47.76
2022-11-08T11:45:52.726Z,47.51
2022-11-08T11:48:26.940Z,48.00
2022-11-08T11:50:53.477Z,47.81
2022-11-08T11:53:47.519Z,47.20
2022-11-08T11:56:41.028Z,46.78
2022-11-08T11:59:22.434Z,47.12
2022-11-08T12:02:10.268Z,47.35
2022-11-08T12:04:48.638Z,47.13
2022-11-08T12:07:19.167Z,46.61
2022-11-08T12:09:50.785Z,47.05
2022-11-08T12:12:48.773Z,46.99
2022-11-08T12:15:26.522Z,47.39
2022-11-08T12:18:30.555Z,46.99
2022-11-08T12:21:15.020Z,47.21
2022-11-08T12:23:53.993Z,47.35
2022-11-08T12:26:31.551Z,47.47
2022-11-08T12:29:26.065Z,47.18
2022-11-08T12:31:58.685Z,47.10
2022-11-08T12:34:45.361Z,47.34
2022-11-08T12:37:30.537Z,47.24
2022-11-08T12:40:07.033Z,47.17
2022-11-08T12:42:48.133Z,47.26
2022-11-08T12:45:19.082Z,47.29
2022-11-08T12:47:58.380Z,47.28
2022-11-08T12:50:55.224Z,47.20
2022-11-08T12:53:34.364Z,47.50
2022-11-08T12:56:04.273Z,47.49
2022-11-08T12:58:39.022Z,47.12
2022-11-08T13:01:10.988Z,46.97
2022-11-08T13:03:44.098Z,47.38
2022-11-08T13:06:43.183Z,47.43
2022-11-08T13:09:15.372Z,47.50
2022-11-08T13:11:54.053Z,46.85
2022-11-08T13:14:22.167Z,47.44
2022-11-08T13:17:16.576Z,47.02
2022-11-08T13:19:52.209Z,47.02
2022-11-08T13:22:33.859Z,47.12
2022-11-08T13:25:02.708Z,47.45
2022-11-08T13:27:40.287Z,47.44
2022-11-08T13:30:15.931Z,47.65
2022-11-08T13:33:24.593Z,47.70
2022-11-08T13:35:53.907Z,47.94
2022-11-08T13:38:44.586Z,48.39
2022-11-08T13:41:16.904Z,47.70
2022-11-08T13:43:43.433Z,47.57
2022-11-08T13:46:28.053Z,48.51
2022-11-08T13:48:57.392Z,48.02
2022-11-08T13:51:40.577Z,48.38
2022-11-08T13:54:22.353Z,48.28
2022-11-08T13:56:53.685Z,48.47
2022-11-08T13:59:29.086Z,48.56
2022-11-08T14:01:58.274Z,48.32
2022-11-08T14:04:31.006Z,48.71
2022-11-08T14:07:13.024Z,48.68
2022-11-08T14:09:48.236Z,48.60
2022-11-08T14:12:54.052Z,48.92
2022-11-08T14:15:44.130Z,48.94
2022-11-08T14:18:28.539Z,49.21
2022-11-08T14:20:56.146Z,49.29
2022-11-08T14:23:31.911Z,49.33
2022-11-08T14:26:04.233Z,49.44
2022-11-08T14:28:37.158Z,49.30
2022-11-08T14:31:06.952Z,49.72
2022-11-08T14:33:41.791Z,49.75
2022-11-08T14:36:14.990Z,50.00
2022-11-08T14:39:09.306Z,50.07
2022-11-08T14:41:35.862Z,50.24
2022-11-08T14:44:03.883Z,50.31
2022-11-08T14:46:39.879Z,50.30
2022-11-08T14:49:18.381Z,50.61
2022-11-08T14:51:45.290Z,50.81
2022-11-08T14:54:20.247Z,51.04
2022-11-08T14:56:46.927Z,50.72
2022-11-08T14:59:13.909Z,50.89
2022-11-08T15:01:43.939Z,51.33
2022-11-08T15:04:17.611Z,51.19
2022-11-08T15:06:46.569Z,51.25
2022-11-08T15:09:28.060Z,51.67
2022-11-08T15:11:58.253Z,50.76
2022-11-08T15:14:28.460Z,51.49
2022-11-08T15:17:02.616Z,51.28
2022-11-08T15:19:39.344Z,51.63
2022-11-08T15:22:28.793Z,51.57
2022-11-08T15:25:13.920Z,51.55
2022-11-08T15:27:46.399Z,52.03
2022-11-08T15:30:19.123Z,51.35
2022-11-08T15:32:46.746Z,51.62
2022-11-08T15:35:46.168Z,52.02
2022-11-08T15:38:31.270Z,52.34
2022-11-08T15:41:00.424Z,52.46
2022-11-08T15:43:40.105Z,52.73
2022-11-08T15:46:35.582Z,52.54
2022-11-08T15:49:03.501Z,52.97
2022-11-08T15:51:30.634Z,52.99
2022-11-08T15:53:57.046Z,52.79
2022-11-08T15:56:23.526Z,53.04
2022-11-08T15:58:50.070Z,52.81
2022-11-08T16:01:20.284Z,53.53
2022-11-08T16:03:48.384Z,53.08
2022-11-08T16:06:15.039Z,53.67
2022-11-08T16:08:41.815Z,53.51
2022-11-08T16:11:19.743Z,53.57
2022-11-08T16:13:48.901Z,53.52
2022-11-08T16:16:17.105Z,53.98
2022-11-08T16:18:43.960Z,53.81
2022-11-08T16:21:11.682Z,53.59
2022-11-08T16:23:39.371Z,53.88
2022-11-08T16:26:07.385Z,53.67
2022-11-08T16:28:38.143Z,54.20
2022-11-08T16:31:11.563Z,53.75
2022-11-08T16:33:38.030Z,54.07
2022-11-08T16:36:18.071Z,54.77
2022-11-08T16:38:50.406Z,54.83
2022-11-08T16:41:17.200Z,54.79
2022-11-08T16:43:43.704Z,54.71
2022-11-08T16:46:10.467Z,54.56
2022-11-08T16:48:38.680Z,55.04
2022-11-08T16:51:07.876Z,55.41
2022-11-08T16:53:36.609Z,55.32
2022-11-08T16:56:03.075Z,55.07
2022-11-08T16:58:29.558Z,54.98
2022-11-08T17:00:57.002Z,55.03
2022-11-08T17:03:25.396Z,55.33
2022-11-08T17:05:52.827Z,55.29
2022-11-08T17:08:20.632Z,55.18
2022-11-08T17:10:47.543Z,55.16
2022-11-08T17:13:17.537Z,55.00
2022-11-08T17:15:44.789Z,55.50
2022-11-08T17:18:16.392Z,55.38
2022-11-08T17:20:43.670Z,55.21
2022-11-08T17:23:11.015Z,55.13
2022-11-08T17:25:40.118Z,55.16
2022-11-08T17:28:06.678Z,55.03
2022-11-08T17:30:33.111Z,55.26
2022-11-08T17:33:00.018Z,55.43
2022-11-08T17:35:26.468Z,56.01
2022-11-08T17:37:53.591Z,55.90
2022-11-08T17:40:20.127Z,55.93
2022-11-08T17:42:46.545Z,55.79
2022-11-08T17:45:13.041Z,56.07
2022-11-08T17:47:39.519Z,55.74
2022-11-08T17:50:08.367Z,55.76
2022-11-08T17:52:34.881Z,56.28
2022-11-08T17:55:01.353Z,56.80
2022-11-08T17:57:27.921Z,56.66
2022-11-08T17:59:54.296Z,56.56
2022-11-08T18:02:20.818Z,56.83
2022-11-08T18:04:47.839Z,56.92
2022-11-08T18:07:14.471Z,56.92
2022-11-08T18:09:40.912Z,56.67
2022-11-08T18:12:07.461Z,56.56
2022-11-08T18:14:33.976Z,56.74
2022-11-08T18:17:00.537Z,57.09
2022-11-08T18:19:27.393Z,56.63
2022-11-08T18:21:53.864Z,57.06
2022-11-08T18:24:20.641Z,57.05
2022-11-08T18:26:47.115Z,57.30
2022-11-08T18:29:13.683Z,57.27
2022-11-08T18:31:40.112Z,57.23
2022-11-08T18:34:06.702Z,57.25
2022-11-08T18:36:33.240Z,57.68
2022-11-08T18:39:00.363Z,57.81
2022-11-08T18:41:30.032Z,58.16
2022-11-08T18:43:58.603Z,58.83
2022-11-08T18:46:26.976Z,58.44
2022-11-08T18:48:54.209Z,58.13
2022-11-08T18:51:21.989Z,58.13
2022-11-08T18:53:48.819Z,58.49
2022-11-08T18:56:16.150Z,58.49
2022-11-08T18:58:44.112Z,58.98
2022-11-08T19:01:10.805Z,59.50
2022-11-08T19:03:37.318Z,60.33
2022-11-08T19:06:04.260Z,61.39
2022-11-08T19:08:31.303Z,61.85
2022-11-08T19:11:06.055Z,62.92
2022-11-08T19:13:35.167Z,62.57
2022-11-08T19:16:14.178Z,62.48
2022-11-08T19:18:42.245Z,62.63
2022-11-08T19:21:20.290Z,62.51
2022-11-08T19:23:48.268Z,62.49
2022-11-08T19:26:19.874Z,62.59
2022-11-08T19:28:46.862Z,62.57
2022-11-08T19:31:15.082Z,62.70
2022-11-08T19:33:41.692Z,62.71
2022-11-08T19:36:12.042Z,62.91
2022-11-08T19:38:39.585Z,63.44
2022-11-08T19:41:12.451Z,64.05
2022-11-08T19:43:42.071Z,64.38
2022-11-08T19:46:17.096Z,65.36
2022-11-08T19:48:45.155Z,65.77
2022-11-08T19:51:14.608Z,66.01
2022-11-08T19:53:41.248Z,65.90
2022-11-08T19:56:10.296Z,65.76
2022-11-08T19:58:38.144Z,66.26
2022-11-08T20:01:22.017Z,65.85
2022-11-08T20:03:49.025Z,65.77
2022-11-08T20:06:18.364Z,65.77
2022-11-08T20:08:53.066Z,65.46
2022-11-08T20:11:22.733Z,65.61
2022-11-08T20:13:49.957Z,65.64
2022-11-08T20:16:26.625Z,65.45
2022-11-08T20:18:54.689Z,66.16
2022-11-08T20:21:21.808Z,65.31
2022-11-08T20:23:48.521Z,65.60
2022-11-08T20:26:18.289Z,65.67
2022-11-08T20:28:55.905Z,65.84
2022-11-08T20:31:24.074Z,65.86
2022-11-08T20:33:53.157Z,66.07
2022-11-08T20:36:22.343Z,66.32
2022-11-08T20:38:49.791Z,66.15
2022-11-08T20:41:17.577Z,66.39
2022-11-08T20:43:46.125Z,66.31
2022-11-08T20:46:18.666Z,66.40
2022-11-08T20:48:50.738Z,67.62
2022-11-08T20:51:19.121Z,68.50
2022-11-08T20:53:46.235Z,69.02
2022-11-08T20:56:15.314Z,68.95
2022-11-08T20:58:44.093Z,71.22
2022-11-08T21:01:13.539Z,73.31
2022-11-08T21:03:40.928Z,74.63
2022-11-08T21:06:09.476Z,75.15
2022-11-08T21:11:24.503Z,77.09
2022-11-08T21:13:51.058Z,77.16
2022-11-08T21:16:52.726Z,77.62
2022-11-08T21:19:04.945Z,77.94
2022-11-08T21:21:32.867Z,77.78
2022-11-08T21:23:59.311Z,78.58
2022-11-08T21:26:25.792Z,78.60
2022-11-08T21:28:52.290Z,78.86
2022-11-08T21:31:19.101Z,78.85
2022-11-08T21:33:45.631Z,79.64
2022-11-08T21:36:12.866Z,79.56
2022-11-08T21:38:40.106Z,79.34
2022-11-08T21:41:09.097Z,79.57
2022-11-08T21:43:37.613Z,79.47
2022-11-08T21:46:22.699Z,79.32
2022-11-08T21:49:00.606Z,79.17
2022-11-08T21:51:29.314Z,78.97
2022-11-08T21:53:57.368Z,79.84
2022-11-08T21:56:27.769Z,79.60
2022-11-08T21:58:54.212Z,79.43
2022-11-08T22:01:23.250Z,79.28
2022-11-08T22:03:53.768Z,79.54
2022-11-08T22:06:21.480Z,79.48
2022-11-08T22:08:48.495Z,79.87
2022-11-08T22:11:14.926Z,79.33
2022-11-08T22:13:41.332Z,79.63
2022-11-08T22:16:07.923Z,79.65
2022-11-08T22:21:39.370Z,80.13
2022-11-08T22:24:08.218Z,80.86
2022-11-08T22:26:34.762Z,80.80
2022-11-08T22:29:01.319Z,79.92
2022-11-08T22:31:27.798Z,80.33
2022-11-08T22:33:54.339Z,81.27
2022-11-08T22:36:20.809Z,80.84
2022-11-08T22:38:47.661Z,81.15
2022-11-08T22:41:18.907Z,81.04
2022-11-08T22:43:46.442Z,81.26
2022-11-08T22:46:13.901Z,81.03
2022-11-08T22:48:40.684Z,81.68
2022-11-08T22:51:07.768Z,81.77
2022-11-08T22:53:34.618Z,82.08
2022-11-08T22:56:02.264Z,82.12
2022-11-08T22:58:31.913Z,81.70
2022-11-08T23:00:58.698Z,81.68
2022-11-08T23:03:25.619Z,81.55
2022-11-08T23:05:54.215Z,81.50
2022-11-08T23:08:22.003Z,81.86
2022-11-08T23:11:07.302Z,82.35
2022-11-08T23:13:54.124Z,83.10
2022-11-08T23:16:35.163Z,83.65
2022-11-08T23:19:30.776Z,83.52
2022-11-08T23:22:16.671Z,84.24
2022-11-08T23:24:43.656Z,83.83
2022-11-08T23:27:31.051Z,84.01
2022-11-08T23:30:16.582Z,83.59
2022-11-08T23:32:45.375Z,84.47
2022-11-08T23:35:13.040Z,84.51
2022-11-08T23:37:40.228Z,84.13
2022-11-08T23:40:27.272Z,84.08
2022-11-08T23:43:22.208Z,84.32
2022-11-08T23:45:48.901Z,85.15
2022-11-08T23:48:15.304Z,86.03
2022-11-08T23:50:52.621Z,86.66
2022-11-08T23:53:20.886Z,87.70
2022-11-08T23:55:47.651Z,88.09
2022-11-08T23:58:14.832Z,88.20
